NWS Home NWS Lubbock West Texas Mesonet                      Daily Summary For 02/24/2021

Latest   N   C   S   Daily Sum   3hrΔ   24hrΔ   Soil Data 
Site Map   24hr Precip   72hr Precip   Google Plot


Station Time of Last Max Temp Min Temp Max/Min Dew Pt. Max/Min RH 10m Avg Wind 2m Avg Wind Peak Gust @ 33ft (mph) Potential Evapotranspiration
mm/day or in/day
Rain Sum Solar Rad
MJ/m^2
% Clear Day Red Flag
Abernathy 5ENE 11:59 PM 79 36 57 /28 68 / 47 15  (SW) 11.8 35.1 mph 345° @ 0235 AM 3 or 0.12 0.00 20.9 153.8 0
Adrian 6WSW 11:59 PM 79 36 57 /28 68 / 47 13.8  (N) 11 30.4 mph 29° @ 1245 AM 2.3 or 0.09 0.00 21 161.6 0
Aiken 3WSW 11:59 PM 79 36 57 /28 68 / 47 15.9  (W) 12.4 33.4 mph 312° @ 0147 AM 3 or 0.12 0.00 21.7 161.4 0
Amarillo 15NNW 11:59 PM 79 36 57 /28 68 / 47 11  (NW) 8.1 31.1 mph 21° @ 1256 AM 2 or 0.08 0.00 19.8 153.8 0
Amarillo 7SSE 11:59 PM 79 36 57 /28 68 / 47 14  (NW) 10.4 35 mph 358° @ 0230 AM 2.3 or 0.09 0.00 19.5 149.9 0
Amarillo 9NNE 11:59 PM 79 36 57 /28 68 / 47 11.4  (NW) 9.1 37.8 mph 6° @ 0130 AM 2 or 0.08 0.00 20.1 155.9 0
Amherst 1NE 11:55 PM 79 36 57 /28 68 / 47 13.7  (W) 10.2 33.6 mph 299° @ 0200 AM 2.5 or 0.1 0.00 4.1 152.2 0
Andrews 2E 11:59 PM 79 36 57 /28 68 / 47 10.9  (W) 6.9 28.5 mph 45° @ 1033 AM 3 or 0.12 0.00 21.6 151.4 0
Anton 6SSW 11:55 PM 79 36 57 /28 68 / 47 14.4  (W) 11.3 29.8 mph 6° @ 0905 AM 2.8 or 0.11 0.00 20.3 148.9 0
Aspermont 3NE 11:55 PM 79 36 57 /28 68 / 47 12.4  (SW) 8.2 34.3 mph 210° @ 1205 AM 2.5 or 0.1 0.00 4 146.4 0
Big Bend NP - Castolon 11:59 PM 79 36 57 /28 68 / 47 4.2  (NW) 3.1 19.3 mph 303° @ 1046 PM 2.8 or 0.11 0.00 21.8 139.3 0
Big Bend NP - Persimmon Gap 11:59 PM 79 36 57 /28 68 / 47 7.9  (N) 6.3 29.4 mph 5° @ 0908 PM 3.8 or 0.15 0.00 21.5 138.9 0
Big Lake 1WNW 11:59 PM 79 36 57 /28 68 / 47 8.5  (S) 6.4 20.8 mph 17° @ 1000 AM 2.8 or 0.11 0.00 22.5 152.4 0
Bootleg 11WNW 11:59 PM 79 36 57 /28 68 / 47 12.7  (W) 9.2 36.2 mph 11° @ 0112 AM 2.3 or 0.09 0.00 17.8 134.5 0
Borger 7E 11:59 PM 79 36 57 /28 68 / 47 12.8  (N) 9.6 41.7 mph 14° @ 1227 AM 2.3 or 0.09 0.00 22 173.3 0
Boys Ranch 1WSW 11:59 PM 79 36 57 /28 68 / 47 7.7  (N) 5.9 37.3 mph 20° @ 1218 AM 1.8 or 0.07 0.00 20.6 161.2 0
Brownfield 2S 11:59 PM 79 36 57 /28 68 / 47 13  (W) 10.3 30.7 mph 7° @ 0440 AM 3 or 0.12 0.00 20.5 147.2 0
Canadian 6E 11:59 PM 79 36 57 /28 68 / 47 15.1  (N) 10.8 50.9 mph 5° @ 1258 AM 2.3 or 0.09 0.00 20.5 163.7 0
Caprock Canyons State Park 11:59 PM 79 36 57 /28 68 / 47 13.9  (NW) 9.8 40 mph 25° @ 0240 AM 3 or 0.12 0.00 21.2 159.8 37
Childress 2NNE 11:55 PM 79 36 57 /28 68 / 47 14.9  (SW) 10.4 34.2 mph 346° @ 0900 AM 3 or 0.12 0.00 19.8 150.8 0
Clarendon 2WSW 11:55 PM 79 36 57 /28 68 / 47 14.8  (W) 10.9 38.2 mph 294° @ 1235 AM 3 or 0.12 0.00 20.4 156.6 0
Claude 12SW 11:59 PM 79 36 57 /28 68 / 47 15.3  (W) 11.1 36.8 mph 262° @ 1202 AM 2.8 or 0.11 0.00 21.5 164.7 0
Clyde 2WNW 11:59 PM 79 36 57 /28 68 / 47 13.1  (SW) 9.9 31 mph 214° @ 0116 AM 2.8 or 0.11 0.00 20.6 146.3 0
Colorado City 5NW 11:59 PM 79 36 57 /28 68 / 47 9.9  (SW) 6.7 27.6 mph 27° @ 1154 AM 2.5 or 0.1 0.00 20.6 146.2 0
Comanche Springs 11:59 PM 79 36 57 /28 68 / 47 12.7  (SW) 9.9 36.2 mph 331° @ 0642 AM 3 or 0.12 0.00 21.4 160.8 0
Coyanosa 2N 11:59 PM 79 36 57 /28 68 / 47 6.8  (SW) 3.9 24.3 mph 14° @ 0648 AM 2.5 or 0.1 0.00 21.1 143.6 0
Crane 1NNW 11:59 PM 79 36 57 /28 68 / 47 7.5  (S) 4.8 24.7 mph 51° @ 0953 AM 2.5 or 0.1 0.00 22.2 151.5 0
Crowell 1E 11:59 PM 79 36 57 /28 68 / 47 16.1  (SW) 12.6 32.6 mph 349° @ 0924 AM 3 or 0.12 0.00 20.4 153.2 0
Dell City 11:59 PM 79 36 57 /28 68 / 47 7.8  (E) 5.4 22.4 mph 136° @ 0533 PM 2.8 or 0.11 0.00 20.9 144.1 0
Denver City 7WNW 11:55 PM 79 36 57 /28 68 / 47 12  (W) 8.5 24.4 mph 33° @ 0925 AM 2.8 or 0.11 0.00 21.9 156.2 0
Dimmitt 2NE 11:55 PM 79 36 57 /28 68 / 47 14.8  (W) 11.6 35.2 mph 326° @ 0100 AM 2.5 or 0.1 0.00 20.2 152.2 0
Doole 3WNW 11:59 PM 79 36 57 /28 68 / 47 10.7  (S) 8.2 34.1 mph 203° @ 0357 AM 3 or 0.12 0.00 21.6 148.9 0
Dora NM 2SW 11:55 PM 79 36 57 /28 68 / 47 12.8  (W) 9.1 26.6 mph 125° @ 1115 PM 2.5 or 0.1 0.00 19.3 141.3 0
Dozier 3W 11:59 PM 79 36 57 /28 68 / 47 14  (W) 9.6 40.9 mph 339° @ 0100 AM 2.5 or 0.1 0.00 20.3 157.1 0
Earth 9WSW 11:59 PM 79 36 57 /28 68 / 47 11.8  (W) 9.9 29.4 mph 8° @ 0914 AM 2.5 or 0.1 0.00 20.5 152.1 0
Endee NM 2SW 11:59 PM 79 36 57 /28 68 / 47 11  (NW) 7.8 30.6 mph 28° @ 0133 AM 2 or 0.08 0.00 19.6 150.4 0
Estelline 3SSE 11:59 PM 79 36 57 /28 68 / 47 12  (SW) 8.7 30.2 mph 348° @ 0201 AM 2.5 or 0.1 0.00 20.4 155.2 0
Floydada 2NNE 11:55 PM 79 36 57 /28 68 / 47 14.4  (SW) 10.5 30.8 mph 8° @ 0925 AM 2.8 or 0.11 0.00 20.6 152.9 0
Fluvanna 3WNW 11:55 PM 79 36 57 /28 68 / 47 13.6  (SW) 10.2 30.5 mph 340° @ 0430 AM 2.8 or 0.11 0.00 19.4 138.6 0
Fort Chadbourne 11:59 PM 79 36 57 /28 68 / 47 8.7  (SW) 4.9 27.6 mph 3° @ 0904 AM 2.3 or 0.09 0.00 20.2 141.3 0
Fort Lancaster 11:59 PM 79 36 57 /28 68 / 47 5.9  (E) 3.5 24.1 mph 75° @ 0908 PM 2.5 or 0.1 0.00 20.9 139.7 0
Fort Lewis CO 11:59 PM 79 36 57 /28 68 / 47 6.6  (N) 4 20.6 mph 217° @ 1130 PM 1 or 0.04 0.00 19 153.1 0
Fort McKavett 11:59 PM 79 36 57 /28 68 / 47 6.1  (S) 3.3 20.2 mph 191° @ 1230 AM 2.3 or 0.09 0.00 19.8 133.2 0
Friona 2NE 11:55 PM 79 36 57 /28 68 / 47 12.9  (W) 9.6 29.6 mph 4° @ 0140 AM 2.3 or 0.09 0.00 21.2 159.6 0
Fritch 1WNW 11:59 PM 79 36 57 /28 68 / 47 11.7  (NE) 9.3 41.4 mph 36° @ 1201 AM 2 or 0.08 0.00 20.2 158.9 0
Gail 2ESE 11:59 PM 79 36 57 /28 68 / 47 10.1  (SW) 6.5 29.6 mph 13° @ 0917 AM 2.8 or 0.11 0.00 21.2 151.6 0
Goodlett 3W 11:55 PM 79 36 57 /28 68 / 47 15.4  (SW) 11.6 34.3 mph 337° @ 0845 AM 2.8 or 0.11 0.00 21.1 160.4 0
Goodnight 11:59 PM 79 36 57 /28 68 / 47 14.7  (W) 11.2 37.3 mph 354° @ 0145 AM 2.5 or 0.1 0.00 19.8 152.2 0
Graham 5SSW 11:59 PM 79 36 57 /28 68 / 47 14  (SW) 10.1 34 mph 4° @ 0915 AM 3 or 0.12 0.00 21.5 154.7 0
Guadalupe Mtns Natl Park 11:59 PM 79 36 57 /28 68 / 47 11.2  (W) 7.8 51.5 mph 248° @ 0244 AM 3 or 0.12 0.00 22.1 149.8 248
Guthrie 10WSW 11:59 PM 79 36 57 /28 68 / 47 14  (SW) 9.7 34 mph 351° @ 0853 AM 3 or 0.12 0.00 21.2 156.3 0
Hackberry 2SSE 11:59 PM 79 36 57 /28 68 / 47 15.3  (SW) 11.8 32.1 mph 232° @ 1216 AM 3 or 0.12 0.00 21.9 163.8 0
Happy 1E 11:59 PM 79 36 57 /28 68 / 47 14.5  (W) 11.3 33.2 mph 360° @ 0155 AM 2.5 or 0.1 0.00 21.4 162.6 0
Hart 3N 11:55 PM 79 36 57 /28 68 / 47 15.9  (W) 12 32.8 mph 2° @ 0250 AM 2.8 or 0.11 0.00 20.9 156.6 0
Haskell 1NW 11:55 PM 79 36 57 /28 68 / 47 14.9  (SW) 10.9 34.4 mph 0° @ 0940 AM 2.5 or 0.1 0.00 19.5 142.5 0
Hefner 1SW 11:59 PM 79 36 57 /28 68 / 47 17.4  (SW) 12.9 35.6 mph 347° @ 1008 AM 3 or 0.12 0.10 20.3 150.1 0
Hereford 2NW 11:55 PM 79 36 57 /28 68 / 47 11.9  (W) 9.6 30.5 mph 12° @ 0150 AM 2 or 0.08 0.00 20.2 153.2 0
Hobbs NM 5NW 11:59 PM 79 36 57 /28 68 / 47 9.7  (W) 6.6 24.2 mph 37° @ 0935 AM 2.5 or 0.1 0.00 21.7 153.2 0
Jayton 1SSE 11:55 PM 79 36 57 /28 68 / 47 12.5  (SW) 9.3 28.5 mph 6° @ 0845 AM 2.8 or 0.11 0.00 20.1 146.3 0
Junction 1SSW 11:59 PM 79 36 57 /28 68 / 47 3.6  (SW) 0.1 12 mph 28° @ 0424 PM 2 or 0.08 0.00 17 113.5 0
Kent 9E 11:59 PM 79 36 57 /28 68 / 47 7.7  (W) 4.7 20.2 mph 341° @ 0859 AM 2.8 or 0.11 0.00 21.6 144.3 0
Knox City 3NW 11:59 PM 79 36 57 /28 68 / 47 13.8  (SW) 10 32.9 mph 0° @ 0931 AM 2.8 or 0.11 0.00 21.2 156 0
Lake Alan Henry 1NW 11:59 PM 79 36 57 /28 68 / 47 10.5  (SW) 7.1 27.8 mph 22° @ 0855 AM 2.5 or 0.1 0.00 20.3 146.5 0
Lake McClellan 2NW 11:59 PM 79 36 57 /28 68 / 47 17.1  (W) 12.8 47.2 mph 351° @ 1242 AM 2.5 or 0.1 0.00 20.1 155.9 0
Lamesa 2SE 11:55 PM 79 36 57 /28 68 / 47 10.1  (S) 6.1 27.8 mph 22° @ 0930 AM 2.5 or 0.1 0.00 21.2 150.8 0
Lesley 2S 11:59 PM 79 36 57 /28 68 / 47 14.5  (W) 10.2 40.3 mph 300° @ 0107 AM 3 or 0.12 0.00 21.5 164.6 0
Levelland 4S 11:59 PM 79 36 57 /28 68 / 47 13.7  (SW) 10.7 35.1 mph 12° @ 0845 AM 3 or 0.12 0.00 20.4 148.7 0
Lomax 1SSE 11:59 PM 79 36 57 /28 68 / 47 9.5  (SW) 6.6 23.4 mph 27° @ 1026 AM 2.5 or 0.1 0.00 21.7 151.8 0
Lubbock 3WNW TTU 11:55 PM 79 36 57 /28 68 / 47 11.1  (W) 8 24.4 mph 6° @ 0915 AM 2.5 or 0.1 0.00 20.8 151.8 0
McAdoo 3NNW 11:59 PM 79 36 57 /28 68 / 47 16.2  (W) 11.3 35.1 mph 311° @ 0224 AM 3 or 0.12 0.00 21.1 155.5 0
McCamey 1SSW 11:59 PM 79 36 57 /28 68 / 47 6.1  (SE) 5 25.3 mph 28° @ 0906 AM 2.5 or 0.1 0.00 19.7 133.3 0
McLean 1E 11:55 PM 79 36 57 /28 68 / 47 16.4  (W) 13.4 39.8 mph 338° @ 1245 AM 2.5 or 0.1 0.00 21.4 166.4 0
Memphis 1NE 11:59 PM 79 36 57 /28 68 / 47 13.7  (SW) 10.9 43.8 mph 348° @ 0203 AM 3 or 0.12 0.00 20.8 159.3 0
Menard 2NW 11:59 PM 79 36 57 /28 68 / 47 5.9  (SW) 4.2 20.3 mph 341° @ 1023 AM 2.3 or 0.09 0.00 18.3 123.9 0
Mertzon 3NNE 11:59 PM 79 36 57 /28 68 / 47 8.5  (SW) 5.9 28.8 mph 200° @ 1229 AM 2.5 or 0.1 0.00 20.5 140 0
Morton 1ENE 11:55 PM 79 36 57 /28 68 / 47 13.5  (W) 9.7 27 mph 15° @ 0910 AM 2.8 or 0.11 0.00 20.4 148.7 0
Muleshoe 2SSW 11:55 PM 79 36 57 /28 68 / 47 11.7  (SW) 8.7 26.9 mph 19° @ 0915 AM 2.3 or 0.09 0.00 22.2 164.8 0
New Home 11:59 PM 79 36 57 /28 68 / 47 11.2  (W) 5.6 28.2 mph 8° @ 0414 AM 2.8 or 0.11 0.00 20 144.8 0
Northfield 1S 11:55 PM 79 36 57 /28 68 / 47 12  (SW) 8.3 34.9 mph 321° @ 0200 AM 2.8 or 0.11 0.00 19.7 148.3 0
O'Donnell 1N 11:55 PM 79 36 57 /28 68 / 47 12.5  (SW) 8.5 27.7 mph 27° @ 1035 AM 2.8 or 0.11 0.00 3.6 130.4 0
Odell 4ENE 11:59 PM 79 36 57 /28 68 / 47 15.5  (SW) 10.8 33.3 mph 347° @ 0848 AM 2.8 or 0.11 0.00 19.7 150 0
Olton 6S 11:55 PM 79 36 57 /28 68 / 47 14.9  (W) 11.4 34.6 mph 11° @ 0450 AM 2.5 or 0.1 0.00 20.8 154.2 0
Paducah 10SW 11:55 PM 79 36 57 /28 68 / 47 15.6  (SW) 9.3 35.4 mph 338° @ 0305 AM 3 or 0.12 0.00 3.9 144.3 0
Palo Duro 4E (JA Ranch) 11:59 PM 79 36 57 /28 68 / 47 13.1  (W) 9.2 45.5 mph 299° @ 1237 AM 2.8 or 0.11 0.00 20.5 156.8 0
Palo Duro Canyon SP Floor 11:59 PM 79 36 57 /28 68 / 47 7.4  (NW) 4.1 26.6 mph 313° @ 1224 AM 1.8 or 0.07 0.00 19.2 147.4 0
Palo Duro Canyon State Park Rim 11:59 PM 79 36 57 /28 68 / 47 11.7  (W) 6.1 32.4 mph 354° @ 0137 AM 2.3 or 0.09 0.00 21.1 161.8 0
Palo Duro Reservoir 1NW 11:59 PM 79 36 57 /28 68 / 47 13.9  (N) 10.2 39 mph 12° @ 1203 AM 2.3 or 0.09 0.00 19.2 155.4 0
Pampa 2E 11:55 PM 79 36 57 /28 68 / 47 14.3  (NW) 11.2 37.7 mph 352° @ 0125 AM 2.3 or 0.09 0.00 19.2 150 0
Panhandle 1SSW 11:59 PM 79 36 57 /28 68 / 47 14.1  (NW) 11.3 45.6 mph 358° @ 0118 AM 2 or 0.08 0.00 20.4 158.2 0
Plains 3N 11:55 PM 79 36 57 /28 68 / 47 12.9  (W) 10.5 28.2 mph 324° @ 0340 AM 2.8 or 0.11 0.00 21.5 154.4 0
Plainview 1S 11:59 PM 79 36 57 /28 68 / 47 12.9  (W) 10.3 32.9 mph 11° @ 0936 AM 2.5 or 0.1 0.00 21.5 160.2 0
Post 1NE 11:59 PM 79 36 57 /28 68 / 47 11.6  (SW) 7.8 26.3 mph 255° @ 0155 AM 2.8 or 0.11 0.00 20.6 149.4 0
Ralls 1SE 11:59 PM 79 36 57 /28 68 / 47 13.7  (SW) 10.5 32.9 mph 335° @ 0303 AM 2.8 or 0.11 0.00 20.7 151.6 0
Reese Center 11:59 PM 79 36 57 /28 68 / 47 14.7  (W) 10.7 30.7 mph 11° @ 0901 AM 3 or 0.12 0.00 20.6 150.5 0
Roaring Springs 3N 11:59 PM 79 36 57 /28 68 / 47 14.6  (SW) 10.3 40.6 mph 305° @ 0541 AM 2.8 or 0.11 0.00 21.1 157 0
Romero 11SSW 11:59 PM 79 36 57 /28 68 / 47 11.9  (N) 8.7 36.4 mph 14° @ 0206 AM 2 or 0.08 0.00 19.1 148.8 0
Rotan 5W 11:59 PM 79 36 57 /28 68 / 47 14.7  (SW) 11.1 35.4 mph 207° @ 1246 AM 3 or 0.12 0.00 25.2 181 0
San Angelo 7NW 11:55 PM 79 36 57 /28 68 / 47 8.1  (S) 5.6 23.2 mph 352° @ 0915 AM 2.8 or 0.11 0.00 20.9 144.1 0
Seagraves 1SW 11:55 PM 79 36 57 /28 68 / 47 10.5  (W) 7.3 28 mph 336° @ 0405 AM 2.5 or 0.1 0.00 3.7 132.6 0
Segovia 7SSW 11:59 PM 79 36 57 /28 68 / 47 7.5  (S) 4.9 19.1 mph 171° @ 0138 AM 2.8 or 0.11 0.00 19 125.5 0
Seminole 2NNE 11:55 PM 79 36 57 /28 68 / 47 11  (W) 7.7 28.1 mph 5° @ 0510 AM 2.8 or 0.11 0.00 21.1 149.7 0
Seymour 3NW 11:55 PM 79 36 57 /28 68 / 47 16  (SW) 12.2 32.5 mph 344° @ 1020 AM 2.8 or 0.11 0.00 17.4 128.9 0
Sierra Blanca 1SSE 11:59 PM 79 36 57 /28 68 / 47 6.9  (W) 4.9 20.2 mph 225° @ 0535 PM 2.8 or 0.11 0.00 19.1 127.3 0
Silverton 7ESE 11:55 PM 79 36 57 /28 68 / 47 16.6  (W) 12.3 38.5 mph 357° @ 0250 AM 3 or 0.12 0.00 18.4 138.7 0
Slaton 2NE 11:59 PM 79 36 57 /28 68 / 47 12.6  (SW) 9.6 35.1 mph 348° @ 0348 AM 2.8 or 0.11 0.00 21.6 157.3 0
Smyer 11:59 PM 79 36 57 /28 68 / 47 13.2  (W) 10.1 29.9 mph 4° @ 0853 AM 2.8 or 0.11 0.00 21.3 155.6 0
Snyder 3E 11:55 PM 79 36 57 /28 68 / 47 12.6  (S) 5.9 31.5 mph 9° @ 0910 AM 2.8 or 0.11 0.00 18.5 132.3 0
Snyder 3SSW 11:59 PM 79 36 57 /28 68 / 47 12.1  (S) 8.4 29.1 mph 14° @ 0926 AM 2.8 or 0.11 0.00 20.7 147.6 0
South Plains 3ENE 11:59 PM 79 36 57 /28 68 / 47 13.5  (W) 10.3 39.5 mph 298° @ 0128 AM 2.8 or 0.11 0.00 20.5 153.3 0
Spur 1W 11:55 PM 79 36 57 /28 68 / 47 11.9  (SW) 9.6 29.1 mph 16° @ 0905 AM 2.8 or 0.11 0.00 20.8 152.1 0
St. Lawrence 5SW 11:59 PM 79 36 57 /28 68 / 47 10.6  (S) 7.3 27.4 mph 19° @ 1032 AM 3 or 0.12 0.00 22.7 156.3 0
Stamford 5ESE 11:59 PM 79 36 57 /28 68 / 47 14.5  (SW) 10.5 31.7 mph 6° @ 0958 AM 2.8 or 0.11 0.00 20.8 150.1 0
Sterling City 4WSW 11:59 PM 79 36 57 /28 68 / 47 7.7  (S) 4.8 23.5 mph 189° @ 1241 AM 2.3 or 0.09 0.00 17.3 119.7 0
Stinnett 1NNW 11:59 PM 79 36 57 /28 68 / 47 15.2  (N) 11.5 54.8 mph 6° @ 1208 AM 2.3 or 0.09 0.00 20.2 159.8 0
Stratford 4WNW 11:59 PM 79 36 57 /28 68 / 47 12  (N) 8.1 35.1 mph 15° @ 1235 AM 1.8 or 0.07 0.00 19.7 158.1 0
Sundown 8WSW 11:55 PM 79 36 57 /28 68 / 47 12.7  (W) 8.5 30 mph 16° @ 0910 AM 2.8 or 0.11 0.00 17.8 128.6 0
Sweetwater 11SW 11:59 PM 79 36 57 /28 68 / 47 12.4  (SW) 8.5 27.6 mph 25° @ 1041 AM 2.8 or 0.11 0.00 22.2 156.7 0
Tahoka 3NNE 11:59 PM 79 36 57 /28 68 / 47 12.8  (SW) 8.7 30 mph 354° @ 0355 AM 2.8 or 0.11 0.00 20.7 149.2 0
Tarzan 2WNW 11:59 PM 79 36 57 /28 68 / 47 10.9  (SW) 7 27 mph 50° @ 1105 AM 2.8 or 0.11 0.00 21.3 149.5 0
Tatum NM 2SW 11:55 PM 79 36 57 /28 68 / 47 12.6  (W) 8.2 28.2 mph 32° @ 0935 AM 3 or 0.12 0.00 21.2 151.6 0
Throckmorton 1SW 11:59 PM 79 36 57 /28 68 / 47 12.9  (SW) 7.9 29.8 mph 337° @ 0907 AM 2.8 or 0.11 0.00 21.1 153.9 0
Truscott 2SE 11:59 PM 79 36 57 /28 68 / 47 15.6  (SW) 12.2 35.7 mph 341° @ 0911 AM 3.3 or 0.13 0.00 19.9 148.4 0
Tulia 2ENE 11:55 PM 79 36 57 /28 68 / 47 13.8  (W) 10.3 33.1 mph 301° @ 1255 AM 2.5 or 0.1 0.00 18 135.4 0
Turkey 2WSW 11:55 PM 79 36 57 /28 68 / 47 15.9  (SW) 12.4 43.7 mph 300° @ 0145 AM 3.3 or 0.13 0.00 18.1 136.4 0
Umbarger 3NNE 11:59 PM 79 36 57 /28 68 / 47 12.7  (NW) 9.4 32.3 mph 359° @ 1258 AM 2.3 or 0.09 0.00 19.8 151.5 0
Van Horn 3ENE 11:59 PM 79 36 57 /28 68 / 47 7.8  (SW) 4.8 20.8 mph 21° @ 1050 AM 2.8 or 0.11 0.00 22.9 153.2 0
Vega 4E 11:59 PM 79 36 57 /28 68 / 47 13.4  (N) 9.9 35.1 mph 353° @ 1216 AM 2 or 0.08 0.00 21.5 165.4 0
Vigo Park 11:59 PM 79 36 57 /28 68 / 47 14.1  (W) 10.6 37 mph 344° @ 0126 AM 2.5 or 0.1 0.00 18.8 142.2 0
Wall 2E 11:59 PM 79 36 57 /28 68 / 47 11.7  (SW) 8.9 29.9 mph 218° @ 0308 AM 3 or 0.12 0.00 21.3 146.1 0
Weinert 2NNE 11:59 PM 79 36 57 /28 68 / 47 14.5  (SW) 11 33.2 mph 5° @ 0954 AM 2.8 or 0.11 0.00 18.7 137.6 0
Welch 11:59 PM 79 36 57 /28 68 / 47 11.1  (SW) 7.8 27.6 mph 47° @ 1256 PM 2.8 or 0.11 0.00 21.5 153.5 0
Wellington 6SE 11:59 PM 79 36 57 /28 68 / 47 16.6  (SW) 12.4 41.7 mph 4° @ 0201 AM 2.8 or 0.11 0.00 22 169.1 0
White River Lake 6NW 11:59 PM 79 36 57 /28 68 / 47 15.3  (SW) 10.8 46 mph 352° @ 0403 AM 3.3 or 0.13 0.00 21.7 158.7 0
Wolfforth 6SSW 11:59 PM 79 36 57 /28 68 / 47 13.9  (W) 10.6 29.6 mph 26° @ 0937 AM 3 or 0.12 0.00 21.2 153.9 0

WestTexas Mesonet Home    Site Map/Menu  National Weather Service Lubbock   Soil Data   Latest Observation Page   Previous  Date   Next Last